sensor_id;sensor_type;location;lat;lon;timestamp;pressure;altitude;pressure_sealevel;temperature;humidity
71107;BME280;58763;47.982;11.516;2023-05-10T00:00:10;93601.88;;;13.15;90.47
71107;BME280;58763;47.982;11.516;2023-05-10T00:02:36;93601.88;;;13.15;90.42
71107;BME280;58763;47.982;11.516;2023-05-10T00:05:02;93598.50;;;13.10;90.78
71107;BME280;58763;47.982;11.516;2023-05-10T00:07:27;93600.75;;;13.16;90.45
71107;BME280;58763;47.982;11.516;2023-05-10T00:09:53;93595.78;;;13.18;89.96
71107;BME280;58763;47.982;11.516;2023-05-10T00:12:18;93603.84;;;13.32;90.01
71107;BME280;58763;47.982;11.516;2023-05-10T00:14:44;93598.22;;;13.20;90.43
71107;BME280;58763;47.982;11.516;2023-05-10T00:17:10;93596.00;;;13.31;89.68
71107;BME280;58763;47.982;11.516;2023-05-10T00:19:35;93598.88;;;13.34;89.46
71107;BME280;58763;47.982;11.516;2023-05-10T00:22:01;93599.38;;;13.36;89.33
71107;BME280;58763;47.982;11.516;2023-05-10T00:24:26;93598.09;;;13.42;89.38
71107;BME280;58763;47.982;11.516;2023-05-10T00:26:52;93595.72;;;13.49;88.79
71107;BME280;58763;47.982;11.516;2023-05-10T00:29:17;93585.78;;;13.45;89.03
71107;BME280;58763;47.982;11.516;2023-05-10T00:31:43;93596.97;;;13.35;90.14
71107;BME280;58763;47.982;11.516;2023-05-10T00:34:08;93591.38;;;13.40;89.26
71107;BME280;58763;47.982;11.516;2023-05-10T00:36:33;93597.75;;;13.27;90.14
71107;BME280;58763;47.982;11.516;2023-05-10T00:38:59;93595.03;;;13.18;90.90
71107;BME280;58763;47.982;11.516;2023-05-10T00:41:25;93592.59;;;13.16;90.80
71107;BME280;58763;47.982;11.516;2023-05-10T00:43:50;93596.91;;;13.09;90.88
71107;BME280;58763;47.982;11.516;2023-05-10T00:46:16;93594.13;;;13.00;91.92
71107;BME280;58763;47.982;11.516;2023-05-10T00:48:43;93584.84;;;12.93;91.81
71107;BME280;58763;47.982;11.516;2023-05-10T00:51:08;93591.88;;;12.94;91.54
71107;BME280;58763;47.982;11.516;2023-05-10T00:53:34;93589.25;;;13.11;90.99
71107;BME280;58763;47.982;11.516;2023-05-10T00:56:00;93597.56;;;13.14;89.76
71107;BME280;58763;47.982;11.516;2023-05-10T00:58:27;93586.69;;;13.06;90.16
71107;BME280;58763;47.982;11.516;2023-05-10T01:00:55;93589.34;;;12.97;90.90
71107;BME280;58763;47.982;11.516;2023-05-10T01:03:22;93584.78;;;13.15;90.07
71107;BME280;58763;47.982;11.516;2023-05-10T01:05:47;93582.41;;;13.13;89.69
71107;BME280;58763;47.982;11.516;2023-05-10T01:08:13;93582.69;;;13.12;89.83
71107;BME280;58763;47.982;11.516;2023-05-10T01:10:39;93575.91;;;12.92;90.14
71107;BME280;58763;47.982;11.516;2023-05-10T01:13:05;93581.69;;;12.99;90.08
71107;BME280;58763;47.982;11.516;2023-05-10T01:15:31;93584.69;;;12.98;90.35
71107;BME280;58763;47.982;11.516;2023-05-10T01:17:56;93583.81;;;13.11;90.28
71107;BME280;58763;47.982;11.516;2023-05-10T01:20:23;93586.22;;;13.12;89.86
71107;BME280;58763;47.982;11.516;2023-05-10T01:23:10;93580.88;;;12.99;90.90
71107;BME280;58763;47.982;11.516;2023-05-10T01:28:42;93582.16;;;13.01;90.70
71107;BME280;58763;47.982;11.516;2023-05-10T01:34:09;93574.16;;;12.88;91.63
71107;BME280;58763;47.982;11.516;2023-05-10T01:36:51;93580.66;;;12.78;92.52
71107;BME280;58763;47.982;11.516;2023-05-10T01:42:08;93582.03;;;12.67;93.61
71107;BME280;58763;47.982;11.516;2023-05-10T01:44:40;93579.16;;;12.64;93.86
71107;BME280;58763;47.982;11.516;2023-05-10T01:47:14;93571.59;;;12.52;94.24
71107;BME280;58763;47.982;11.516;2023-05-10T01:49:45;93579.94;;;12.64;94.19
71107;BME280;58763;47.982;11.516;2023-05-10T01:52:15;93577.53;;;12.63;93.74
71107;BME280;58763;47.982;11.516;2023-05-10T01:54:45;93569.59;;;12.66;93.22
71107;BME280;58763;47.982;11.516;2023-05-10T01:57:16;93575.34;;;12.73;92.47
71107;BME280;58763;47.982;11.516;2023-05-10T01:59:45;93575.16;;;12.70;92.66
71107;BME280;58763;47.982;11.516;2023-05-10T02:02:11;93575.91;;;12.53;92.92
71107;BME280;58763;47.982;11.516;2023-05-10T02:04:39;93577.25;;;12.64;93.15
71107;BME280;58763;47.982;11.516;2023-05-10T02:07:06;93584.72;;;12.67;92.46
71107;BME280;58763;47.982;11.516;2023-05-10T02:09:33;93577.72;;;12.66;92.33
71107;BME280;58763;47.982;11.516;2023-05-10T02:12:01;93580.44;;;12.66;92.30
71107;BME280;58763;47.982;11.516;2023-05-10T02:14:29;93575.03;;;12.75;92.21
71107;BME280;58763;47.982;11.516;2023-05-10T02:16:56;93581.88;;;12.72;91.58
71107;BME280;58763;47.982;11.516;2023-05-10T02:19:23;93581.72;;;12.69;91.50
71107;BME280;58763;47.982;11.516;2023-05-10T02:21:50;93584.22;;;12.57;91.82
71107;BME280;58763;47.982;11.516;2023-05-10T02:24:17;93582.25;;;12.48;93.02
71107;BME280;58763;47.982;11.516;2023-05-10T02:26:45;93576.91;;;12.35;93.55
71107;BME280;58763;47.982;11.516;2023-05-10T02:29:13;93576.31;;;12.38;93.43
71107;BME280;58763;47.982;11.516;2023-05-10T02:31:39;93576.06;;;12.48;93.08
71107;BME280;58763;47.982;11.516;2023-05-10T02:34:10;93579.06;;;12.46;92.58
71107;BME280;58763;47.982;11.516;2023-05-10T02:36:37;93585.16;;;12.52;92.66
71107;BME280;58763;47.982;11.516;2023-05-10T02:39:03;93581.72;;;12.38;93.46
71107;BME280;58763;47.982;11.516;2023-05-10T02:41:32;93580.34;;;12.49;92.50
71107;BME280;58763;47.982;11.516;2023-05-10T02:43:59;93578.00;;;12.56;91.97
71107;BME280;58763;47.982;11.516;2023-05-10T02:46:26;93587.97;;;12.69;91.96
71107;BME280;58763;47.982;11.516;2023-05-10T02:48:52;93582.19;;;12.62;91.48
71107;BME280;58763;47.982;11.516;2023-05-10T02:51:18;93582.44;;;12.52;91.84
71107;BME280;58763;47.982;11.516;2023-05-10T02:53:46;93580.31;;;12.40;92.66
71107;BME280;58763;47.982;11.516;2023-05-10T02:56:15;93583.25;;;12.53;92.11
71107;BME280;58763;47.982;11.516;2023-05-10T02:58:44;93579.31;;;12.67;91.32
71107;BME280;58763;47.982;11.516;2023-05-10T03:01:10;93590.13;;;12.59;91.70
71107;BME280;58763;47.982;11.516;2023-05-10T03:03:35;93583.41;;;12.56;91.59
71107;BME280;58763;47.982;11.516;2023-05-10T03:06:01;93589.72;;;12.43;92.61
71107;BME280;58763;47.982;11.516;2023-05-10T03:08:26;93593.06;;;12.40;91.94
71107;BME280;58763;47.982;11.516;2023-05-10T03:11:21;93594.31;;;12.34;93.16
71107;BME280;58763;47.982;11.516;2023-05-10T03:13:59;93594.81;;;12.36;93.33
71107;BME280;58763;47.982;11.516;2023-05-10T03:16:36;93593.81;;;12.32;93.53
71107;BME280;58763;47.982;11.516;2023-05-10T03:19:17;93597.78;;;12.04;94.65
71107;BME280;58763;47.982;11.516;2023-05-10T03:21:50;93601.16;;;12.09;94.31
71107;BME280;58763;47.982;11.516;2023-05-10T03:24:16;93597.88;;;12.21;93.92
71107;BME280;58763;47.982;11.516;2023-05-10T03:26:44;93602.56;;;12.29;93.48
71107;BME280;58763;47.982;11.516;2023-05-10T03:29:12;93603.50;;;12.24;93.58
71107;BME280;58763;47.982;11.516;2023-05-10T03:31:39;93611.44;;;12.21;93.51
71107;BME280;58763;47.982;11.516;2023-05-10T03:34:05;93606.94;;;12.16;93.89
71107;BME280;58763;47.982;11.516;2023-05-10T03:36:31;93603.25;;;12.12;94.00
71107;BME280;58763;47.982;11.516;2023-05-10T03:38:57;93605.66;;;12.14;94.15
71107;BME280;58763;47.982;11.516;2023-05-10T03:41:22;93606.50;;;12.23;93.66
71107;BME280;58763;47.982;11.516;2023-05-10T03:43:47;93610.25;;;12.35;92.70
71107;BME280;58763;47.982;11.516;2023-05-10T03:46:13;93613.91;;;12.31;92.96
71107;BME280;58763;47.982;11.516;2023-05-10T03:48:38;93608.22;;;12.41;92.32
71107;BME280;58763;47.982;11.516;2023-05-10T03:51:04;93623.84;;;12.44;92.30
71107;BME280;58763;47.982;11.516;2023-05-10T03:53:29;93620.84;;;12.45;92.75
71107;BME280;58763;47.982;11.516;2023-05-10T03:55:55;93611.56;;;12.38;92.36
71107;BME280;58763;47.982;11.516;2023-05-10T03:58:20;93618.44;;;12.44;92.66
71107;BME280;58763;47.982;11.516;2023-05-10T04:00:47;93619.56;;;12.43;92.74
71107;BME280;58763;47.982;11.516;2023-05-10T04:03:12;93630.25;;;12.17;93.59
71107;BME280;58763;47.982;11.516;2023-05-10T04:05:38;93626.41;;;12.18;93.55
71107;BME280;58763;47.982;11.516;2023-05-10T04:08:04;93627.28;;;12.05;94.54
71107;BME280;58763;47.982;11.516;2023-05-10T04:10:29;93628.09;;;12.06;94.76
71107;BME280;58763;47.982;11.516;2023-05-10T04:12:54;93631.50;;;11.98;94.77
71107;BME280;58763;47.982;11.516;2023-05-10T04:15:20;93632.47;;;12.15;94.27
71107;BME280;58763;47.982;11.516;2023-05-10T04:17:46;93632.44;;;11.93;94.87
71107;BME280;58763;47.982;11.516;2023-05-10T04:20:12;93626.91;;;11.98;94.39
71107;BME280;58763;47.982;11.516;2023-05-10T04:22:38;93633.97;;;11.86;94.89
71107;BME280;58763;47.982;11.516;2023-05-10T04:25:04;93642.78;;;11.91;94.91
71107;BME280;58763;47.982;11.516;2023-05-10T04:27:30;93635.34;;;11.97;94.32
71107;BME280;58763;47.982;11.516;2023-05-10T04:29:56;93643.22;;;11.85;95.46
71107;BME280;58763;47.982;11.516;2023-05-10T04:32:22;93636.28;;;11.78;95.62
71107;BME280;58763;47.982;11.516;2023-05-10T04:34:47;93644.13;;;11.80;95.35
71107;BME280;58763;47.982;11.516;2023-05-10T04:37:13;93638.59;;;11.85;94.73
71107;BME280;58763;47.982;11.516;2023-05-10T04:39:38;93641.91;;;11.82;94.94
71107;BME280;58763;47.982;11.516;2023-05-10T04:42:04;93643.59;;;11.92;94.54
71107;BME280;58763;47.982;11.516;2023-05-10T04:44:34;93655.19;;;12.06;93.57
71107;BME280;58763;47.982;11.516;2023-05-10T04:47:00;93649.06;;;12.00;94.46
71107;BME280;58763;47.982;11.516;2023-05-10T04:49:28;93648.44;;;11.81;95.00
71107;BME280;58763;47.982;11.516;2023-05-10T04:51:53;93644.94;;;11.81;95.45
71107;BME280;58763;47.982;11.516;2023-05-10T04:54:19;93644.75;;;11.63;96.07
71107;BME280;58763;47.982;11.516;2023-05-10T04:56:44;93657.28;;;11.73;95.99
71107;BME280;58763;47.982;11.516;2023-05-10T04:59:10;93659.09;;;11.64;96.89
71107;BME280;58763;47.982;11.516;2023-05-10T05:01:35;93664.22;;;11.52;97.50
71107;BME280;58763;47.982;11.516;2023-05-10T05:04:01;93669.03;;;11.41;98.22
71107;BME280;58763;47.982;11.516;2023-05-10T05:06:27;93674.59;;;11.36;99.18
71107;BME280;58763;47.982;11.516;2023-05-10T05:08:53;93678.69;;;11.34;96.92
71107;BME280;58763;47.982;11.516;2023-05-10T05:11:18;93681.91;;;11.22;96.37
71107;BME280;58763;47.982;11.516;2023-05-10T05:13:43;93676.88;;;11.02;96.73
71107;BME280;58763;47.982;11.516;2023-05-10T05:16:09;93680.00;;;11.09;97.14
71107;BME280;58763;47.982;11.516;2023-05-10T05:18:35;93676.78;;;11.07;97.01
71107;BME280;58763;47.982;11.516;2023-05-10T05:21:01;93680.97;;;10.99;97.07
71107;BME280;58763;47.982;11.516;2023-05-10T05:23:26;93683.81;;;10.94;98.27
71107;BME280;58763;47.982;11.516;2023-05-10T05:25:52;93677.28;;;10.95;98.85
71107;BME280;58763;47.982;11.516;2023-05-10T05:28:21;93686.41;;;10.99;98.50
71107;BME280;58763;47.982;11.516;2023-05-10T05:30:47;93691.13;;;11.07;99.02
71107;BME280;58763;47.982;11.516;2023-05-10T05:33:15;93686.81;;;11.06;98.96
71107;BME280;58763;47.982;11.516;2023-05-10T05:35:41;93682.78;;;11.04;99.69
71107;BME280;58763;47.982;11.516;2023-05-10T05:38:08;93696.53;;;11.07;98.86
71107;BME280;58763;47.982;11.516;2023-05-10T05:40:33;93694.72;;;11.03;98.59
71107;BME280;58763;47.982;11.516;2023-05-10T05:42:59;93688.81;;;11.01;98.96
71107;BME280;58763;47.982;11.516;2023-05-10T05:45:24;93699.75;;;11.09;99.29
71107;BME280;58763;47.982;11.516;2023-05-10T05:47:50;93698.44;;;11.07;97.92
71107;BME280;58763;47.982;11.516;2023-05-10T05:50:15;93701.34;;;11.10;97.65
71107;BME280;58763;47.982;11.516;2023-05-10T05:52:41;93703.16;;;11.15;98.10
71107;BME280;58763;47.982;11.516;2023-05-10T05:55:06;93703.25;;;11.10;98.00
71107;BME280;58763;47.982;11.516;2023-05-10T05:57:32;93714.06;;;11.10;97.97
71107;BME280;58763;47.982;11.516;2023-05-10T05:59:57;93707.66;;;11.06;98.02
71107;BME280;58763;47.982;11.516;2023-05-10T06:02:23;93714.06;;;11.10;97.93
71107;BME280;58763;47.982;11.516;2023-05-10T06:04:48;93713.47;;;11.13;98.20
71107;BME280;58763;47.982;11.516;2023-05-10T06:07:14;93715.69;;;11.25;98.18
71107;BME280;58763;47.982;11.516;2023-05-10T06:09:39;93721.50;;;11.32;97.05
71107;BME280;58763;47.982;11.516;2023-05-10T06:12:05;93725.09;;;11.41;96.54
71107;BME280;58763;47.982;11.516;2023-05-10T06:14:30;93719.78;;;11.36;95.78
71107;BME280;58763;47.982;11.516;2023-05-10T06:16:56;93718.50;;;11.33;96.58
71107;BME280;58763;47.982;11.516;2023-05-10T06:19:21;93726.50;;;11.38;95.89
71107;BME280;58763;47.982;11.516;2023-05-10T06:21:47;93729.63;;;11.45;96.86
71107;BME280;58763;47.982;11.516;2023-05-10T06:24:12;93730.72;;;11.31;95.44
71107;BME280;58763;47.982;11.516;2023-05-10T06:26:38;93738.03;;;11.30;96.54
71107;BME280;58763;47.982;11.516;2023-05-10T06:29:03;93733.13;;;11.32;96.10
71107;BME280;58763;47.982;11.516;2023-05-10T06:31:29;93734.53;;;11.43;96.09
71107;BME280;58763;47.982;11.516;2023-05-10T06:33:54;93744.97;;;11.50;94.91
71107;BME280;58763;47.982;11.516;2023-05-10T06:36:20;93746.66;;;11.59;95.20
71107;BME280;58763;47.982;11.516;2023-05-10T06:38:46;93742.06;;;11.73;93.90
71107;BME280;58763;47.982;11.516;2023-05-10T06:41:12;93749.34;;;11.87;93.94
71107;BME280;58763;47.982;11.516;2023-05-10T06:43:37;93747.94;;;11.89;92.69
71107;BME280;58763;47.982;11.516;2023-05-10T06:46:06;93743.25;;;11.95;91.32
71107;BME280;58763;47.982;11.516;2023-05-10T06:48:32;93746.19;;;12.07;90.05
71107;BME280;58763;47.982;11.516;2023-05-10T06:50:57;93752.84;;;12.01;90.32
71107;BME280;58763;47.982;11.516;2023-05-10T06:53:23;93766.41;;;12.01;90.45
71107;BME280;58763;47.982;11.516;2023-05-10T06:55:49;93765.00;;;12.03;89.53
71107;BME280;58763;47.982;11.516;2023-05-10T06:58:15;93759.53;;;12.17;90.25
71107;BME280;58763;47.982;11.516;2023-05-10T07:00:41;93770.19;;;12.13;88.20
71107;BME280;58763;47.982;11.516;2023-05-10T07:03:09;93766.19;;;12.11;88.90
71107;BME280;58763;47.982;11.516;2023-05-10T07:05:35;93762.38;;;11.98;89.34
71107;BME280;58763;47.982;11.516;2023-05-10T07:08:01;93765.75;;;12.17;88.48
71107;BME280;58763;47.982;11.516;2023-05-10T07:10:27;93765.03;;;12.25;89.00
71107;BME280;58763;47.982;11.516;2023-05-10T07:12:52;93772.63;;;12.37;88.21
71107;BME280;58763;47.982;11.516;2023-05-10T07:15:18;93774.22;;;12.38;88.06
71107;BME280;58763;47.982;11.516;2023-05-10T07:17:44;93764.00;;;12.35;87.59
71107;BME280;58763;47.982;11.516;2023-05-10T07:20:10;93775.22;;;12.42;87.38
71107;BME280;58763;47.982;11.516;2023-05-10T07:22:36;93774.34;;;12.33;87.20
71107;BME280;58763;47.982;11.516;2023-05-10T07:25:01;93774.44;;;12.41;88.18
71107;BME280;58763;47.982;11.516;2023-05-10T07:27:27;93779.06;;;12.63;88.01
71107;BME280;58763;47.982;11.516;2023-05-10T07:29:53;93779.91;;;12.72;87.10
71107;BME280;58763;47.982;11.516;2023-05-10T07:32:18;93782.75;;;12.67;86.08
71107;BME280;58763;47.982;11.516;2023-05-10T07:34:44;93770.31;;;12.66;86.73
71107;BME280;58763;47.982;11.516;2023-05-10T07:37:09;93777.50;;;12.93;87.17
71107;BME280;58763;47.982;11.516;2023-05-10T07:39:35;93776.09;;;12.95;85.95
71107;BME280;58763;47.982;11.516;2023-05-10T07:42:00;93779.00;;;12.99;87.35
71107;BME280;58763;47.982;11.516;2023-05-10T07:44:26;93775.34;;;12.81;86.49
71107;BME280;58763;47.982;11.516;2023-05-10T07:46:51;93773.53;;;12.90;87.46
71107;BME280;58763;47.982;11.516;2023-05-10T07:49:17;93776.09;;;12.95;86.00
71107;BME280;58763;47.982;11.516;2023-05-10T07:51:42;93781.28;;;12.83;88.52
71107;BME280;58763;47.982;11.516;2023-05-10T07:54:09;93779.31;;;12.97;86.13
71107;BME280;58763;47.982;11.516;2023-05-10T07:56:35;93779.69;;;13.04;86.62
71107;BME280;58763;47.982;11.516;2023-05-10T07:59:02;93776.91;;;12.96;84.67
71107;BME280;58763;47.982;11.516;2023-05-10T08:01:33;93780.06;;;13.11;84.91
71107;BME280;58763;47.982;11.516;2023-05-10T08:03:59;93777.50;;;13.06;83.57
71107;BME280;58763;47.982;11.516;2023-05-10T08:06:25;93781.09;;;13.02;84.99
71107;BME280;58763;47.982;11.516;2023-05-10T08:08:52;93778.06;;;13.03;86.23
71107;BME280;58763;47.982;11.516;2023-05-10T08:11:21;93770.28;;;12.88;85.92
71107;BME280;58763;47.982;11.516;2023-05-10T08:13:49;93773.94;;;12.84;85.66
71107;BME280;58763;47.982;11.516;2023-05-10T08:16:15;93768.81;;;12.82;84.65
71107;BME280;58763;47.982;11.516;2023-05-10T08:18:41;93776.28;;;12.99;85.36
71107;BME280;58763;47.982;11.516;2023-05-10T08:21:07;93779.16;;;13.02;83.49
71107;BME280;58763;47.982;11.516;2023-05-10T08:23:33;93785.31;;;13.08;83.40
71107;BME280;58763;47.982;11.516;2023-05-10T08:25:59;93777.84;;;13.13;83.45
71107;BME280;58763;47.982;11.516;2023-05-10T08:28:25;93780.19;;;13.06;82.39
71107;BME280;58763;47.982;11.516;2023-05-10T08:30:50;93783.81;;;13.24;82.26
71107;BME280;58763;47.982;11.516;2023-05-10T08:33:18;93773.63;;;13.30;81.62
71107;BME280;58763;47.982;11.516;2023-05-10T08:35:44;93781.63;;;13.35;81.85
71107;BME280;58763;47.982;11.516;2023-05-10T08:38:09;93783.09;;;13.41;82.08
71107;BME280;58763;47.982;11.516;2023-05-10T08:40:36;93776.41;;;13.47;82.79
71107;BME280;58763;47.982;11.516;2023-05-10T08:43:07;93772.75;;;13.51;82.43
71107;BME280;58763;47.982;11.516;2023-05-10T08:45:39;93773.63;;;13.69;81.96
71107;BME280;58763;47.982;11.516;2023-05-10T08:48:07;93777.84;;;13.83;79.71
71107;BME280;58763;47.982;11.516;2023-05-10T08:50:37;93784.31;;;13.65;78.28
71107;BME280;58763;47.982;11.516;2023-05-10T08:53:09;93782.91;;;13.37;78.39
71107;BME280;58763;47.982;11.516;2023-05-10T08:55:35;93780.75;;;13.26;79.30
71107;BME280;58763;47.982;11.516;2023-05-10T08:58:06;93790.53;;;13.04;81.63
71107;BME280;58763;47.982;11.516;2023-05-10T09:00:32;93787.53;;;13.06;80.27
71107;BME280;58763;47.982;11.516;2023-05-10T09:02:58;93793.38;;;12.99;80.33
71107;BME280;58763;47.982;11.516;2023-05-10T09:05:24;93791.88;;;12.93;80.45
71107;BME280;58763;47.982;11.516;2023-05-10T09:07:50;93795.22;;;13.12;79.95
71107;BME280;58763;47.982;11.516;2023-05-10T09:10:17;93798.38;;;13.06;81.11
71107;BME280;58763;47.982;11.516;2023-05-10T09:12:43;93793.38;;;13.22;81.09
71107;BME280;58763;47.982;11.516;2023-05-10T09:15:11;93794.50;;;13.21;79.86
71107;BME280;58763;47.982;11.516;2023-05-10T09:17:40;93792.06;;;13.19;79.52
71107;BME280;58763;47.982;11.516;2023-05-10T09:20:06;93785.09;;;13.27;80.26
71107;BME280;58763;47.982;11.516;2023-05-10T09:22:33;93782.47;;;13.44;81.88
71107;BME280;58763;47.982;11.516;2023-05-10T09:25:12;93785.06;;;13.49;81.11
71107;BME280;58763;47.982;11.516;2023-05-10T09:27:40;93782.53;;;13.61;80.05
71107;BME280;58763;47.982;11.516;2023-05-10T09:30:07;93795.22;;;13.74;79.18
71107;BME280;58763;47.982;11.516;2023-05-10T09:32:47;93782.34;;;14.05;81.08
71107;BME280;58763;47.982;11.516;2023-05-10T09:35:14;93779.19;;;14.20;77.57
71107;BME280;58763;47.982;11.516;2023-05-10T09:37:41;93787.09;;;14.30;78.51
71107;BME280;58763;47.982;11.516;2023-05-10T09:40:18;93791.59;;;14.43;76.83
71107;BME280;58763;47.982;11.516;2023-05-10T09:43:00;93792.00;;;14.28;77.25
71107;BME280;58763;47.982;11.516;2023-05-10T09:45:27;93789.13;;;14.16;75.59
71107;BME280;58763;47.982;11.516;2023-05-10T09:47:54;93786.06;;;14.18;74.94
71107;BME280;58763;47.982;11.516;2023-05-10T09:50:20;93787.78;;;14.05;74.32
71107;BME280;58763;47.982;11.516;2023-05-10T09:52:54;93791.31;;;13.97;74.11
71107;BME280;58763;47.982;11.516;2023-05-10T09:55:22;93800.88;;;13.86;74.50
71107;BME280;58763;47.982;11.516;2023-05-10T09:57:49;93793.25;;;13.66;76.09
71107;BME280;58763;47.982;11.516;2023-05-10T10:00:23;93789.56;;;13.62;76.69
71107;BME280;58763;47.982;11.516;2023-05-10T10:02:55;93791.38;;;13.75;77.05
71107;BME280;58763;47.982;11.516;2023-05-10T10:05:28;93793.06;;;13.93;75.87
71107;BME280;58763;47.982;11.516;2023-05-10T10:07:53;93795.81;;;14.10;75.59
71107;BME280;58763;47.982;11.516;2023-05-10T10:10:19;93794.69;;;14.11;75.83
71107;BME280;58763;47.982;11.516;2023-05-10T10:12:44;93790.38;;;14.10;75.09
71107;BME280;58763;47.982;11.516;2023-05-10T10:15:10;93792.72;;;13.95;76.83
71107;BME280;58763;47.982;11.516;2023-05-10T10:17:36;93784.63;;;14.20;77.38
71107;BME280;58763;47.982;11.516;2023-05-10T10:20:03;93788.34;;;14.33;75.64
71107;BME280;58763;47.982;11.516;2023-05-10T10:22:29;93794.78;;;14.45;75.06
71107;BME280;58763;47.982;11.516;2023-05-10T10:24:55;93791.72;;;14.30;74.47
71107;BME280;58763;47.982;11.516;2023-05-10T10:27:28;93799.44;;;14.53;74.66
71107;BME280;58763;47.982;11.516;2023-05-10T10:30:07;93793.84;;;14.67;72.92
71107;BME280;58763;47.982;11.516;2023-05-10T10:35:18;93789.34;;;14.80;72.15
71107;BME280;58763;47.982;11.516;2023-05-10T10:37:45;93791.59;;;14.95;71.80
71107;BME280;58763;47.982;11.516;2023-05-10T10:40:26;93792.38;;;15.04;71.98
71107;BME280;58763;47.982;11.516;2023-05-10T10:42:52;93783.25;;;15.00;70.25
71107;BME280;58763;47.982;11.516;2023-05-10T10:45:19;93786.13;;;15.12;69.14
71107;BME280;58763;47.982;11.516;2023-05-10T10:47:45;93789.00;;;15.15;71.99
71107;BME280;58763;47.982;11.516;2023-05-10T10:50:11;93784.38;;;14.99;70.66
71107;BME280;58763;47.982;11.516;2023-05-10T10:52:42;93782.78;;;14.81;73.84
71107;BME280;58763;47.982;11.516;2023-05-10T11:02:48;93785.78;;;15.13;75.91
71107;BME280;58763;47.982;11.516;2023-05-10T11:05:40;93790.75;;;15.20;76.16
71107;BME280;58763;47.982;11.516;2023-05-10T11:10:51;93789.16;;;15.19;75.82
71107;BME280;58763;47.982;11.516;2023-05-10T11:13:45;93793.81;;;14.84;75.14
71107;BME280;58763;47.982;11.516;2023-05-10T11:16:19;93801.50;;;14.48;76.64
71107;BME280;58763;47.982;11.516;2023-05-10T11:21:28;93808.28;;;14.11;71.12
71107;BME280;58763;47.982;11.516;2023-05-10T11:23:58;93823.63;;;13.68;73.17
71107;BME280;58763;47.982;11.516;2023-05-10T11:26:25;93817.38;;;13.59;74.24
71107;BME280;58763;47.982;11.516;2023-05-10T11:28:53;93815.84;;;13.44;75.85
71107;BME280;58763;47.982;11.516;2023-05-10T11:31:22;93818.34;;;13.32;75.69
71107;BME280;58763;47.982;11.516;2023-05-10T11:33:50;93826.56;;;13.18;77.77
71107;BME280;58763;47.982;11.516;2023-05-10T11:36:35;93822.50;;;13.07;78.40
71107;BME280;58763;47.982;11.516;2023-05-10T11:39:01;93817.91;;;12.94;78.53
71107;BME280;58763;47.982;11.516;2023-05-10T11:41:28;93819.56;;;12.60;80.40
71107;BME280;58763;47.982;11.516;2023-05-10T11:43:55;93818.50;;;12.47;82.91
71107;BME280;58763;47.982;11.516;2023-05-10T11:46:22;93820.53;;;12.41;84.25
71107;BME280;58763;47.982;11.516;2023-05-10T11:48:54;93825.31;;;12.44;83.89
71107;BME280;58763;47.982;11.516;2023-05-10T11:51:23;93826.13;;;12.45;83.88
71107;BME280;58763;47.982;11.516;2023-05-10T11:53:55;93835.06;;;12.45;84.93
71107;BME280;58763;47.982;11.516;2023-05-10T11:56:21;93838.84;;;12.58;84.65
71107;BME280;58763;47.982;11.516;2023-05-10T11:58:53;93842.31;;;12.72;83.91
71107;BME280;58763;47.982;11.516;2023-05-10T12:01:20;93843.31;;;12.76;84.14
71107;BME280;58763;47.982;11.516;2023-05-10T12:03:46;93849.34;;;12.73;83.33
71107;BME280;58763;47.982;11.516;2023-05-10T12:06:12;93852.78;;;12.65;84.19
71107;BME280;58763;47.982;11.516;2023-05-10T12:08:44;93863.25;;;12.72;84.59
71107;BME280;58763;47.982;11.516;2023-05-10T12:11:10;93846.09;;;12.49;86.05
71107;BME280;58763;47.982;11.516;2023-05-10T12:13:39;93858.69;;;12.31;87.53
71107;BME280;58763;47.982;11.516;2023-05-10T12:16:24;93852.19;;;12.19;88.53
71107;BME280;58763;47.982;11.516;2023-05-10T12:18:50;93859.09;;;12.38;88.08
71107;BME280;58763;47.982;11.516;2023-05-10T12:21:17;93860.25;;;12.60;86.87
71107;BME280;58763;47.982;11.516;2023-05-10T12:23:45;93864.00;;;12.50;86.92
71107;BME280;58763;47.982;11.516;2023-05-10T12:26:11;93863.31;;;12.31;87.46
71107;BME280;58763;47.982;11.516;2023-05-10T12:28:37;93868.44;;;12.46;87.09
71107;BME280;58763;47.982;11.516;2023-05-10T12:31:04;93864.97;;;12.54;87.19
71107;BME280;58763;47.982;11.516;2023-05-10T12:33:38;93864.75;;;12.64;86.36
71107;BME280;58763;47.982;11.516;2023-05-10T12:36:05;93862.50;;;12.80;86.49
71107;BME280;58763;47.982;11.516;2023-05-10T12:38:38;93862.22;;;12.68;87.24
71107;BME280;58763;47.982;11.516;2023-05-10T12:41:06;93874.88;;;12.72;86.37
71107;BME280;58763;47.982;11.516;2023-05-10T12:43:33;93866.63;;;12.28;88.81
71107;BME280;58763;47.982;11.516;2023-05-10T12:46:04;93869.91;;;12.52;88.59
71107;BME280;58763;47.982;11.516;2023-05-10T12:48:31;93877.50;;;12.64;87.73
71107;BME280;58763;47.982;11.516;2023-05-10T12:50:56;93874.72;;;12.55;87.88
71107;BME280;58763;47.982;11.516;2023-05-10T12:53:22;93885.28;;;12.43;86.86
71107;BME280;58763;47.982;11.516;2023-05-10T12:55:48;93882.75;;;12.60;86.16
71107;BME280;58763;47.982;11.516;2023-05-10T12:58:13;93879.59;;;12.80;85.62
71107;BME280;58763;47.982;11.516;2023-05-10T13:00:39;93878.22;;;12.91;85.38
71107;BME280;58763;47.982;11.516;2023-05-10T13:03:05;93887.19;;;12.92;84.56
71107;BME280;58763;47.982;11.516;2023-05-10T13:05:33;93892.66;;;13.00;80.95
71107;BME280;58763;47.982;11.516;2023-05-10T13:07:59;93887.34;;;12.95;81.41
71107;BME280;58763;47.982;11.516;2023-05-10T13:10:24;93877.50;;;12.99;79.92
71107;BME280;58763;47.982;11.516;2023-05-10T13:12:50;93879.41;;;12.99;80.41
71107;BME280;58763;47.982;11.516;2023-05-10T13:15:16;93884.53;;;13.00;80.82